sensor_id;sensor_type;location;lat;lon;timestamp;P1;durP1;ratioP1;P2;durP2;ratioP2
36725;SDS011;44936;52.086;5.150;2023-02-23T00:00:28;28.00;;;8.15;;
36725;SDS011;44936;52.086;5.150;2023-02-23T00:02:56;32.92;;;8.30;;
36725;SDS011;44936;52.086;5.150;2023-02-23T00:05:26;31.23;;;8.50;;
36725;SDS011;44936;52.086;5.150;2023-02-23T00:07:53;34.92;;;9.80;;
36725;SDS011;44936;52.086;5.150;2023-02-23T00:10:19;38.88;;;9.43;;
36725;SDS011;44936;52.086;5.150;2023-02-23T00:12:45;31.08;;;9.27;;
36725;SDS011;44936;52.086;5.150;2023-02-23T00:15:13;36.40;;;9.82;;
36725;SDS011;44936;52.086;5.150;2023-02-23T00:17:39;37.75;;;9.45;;
36725;SDS011;44936;52.086;5.150;2023-02-23T00:20:06;37.47;;;10.68;;
36725;SDS011;44936;52.086;5.150;2023-02-23T00:22:37;39.38;;;9.32;;
36725;SDS011;44936;52.086;5.150;2023-02-23T00:25:06;33.03;;;8.82;;
36725;SDS011;44936;52.086;5.150;2023-02-23T00:27:36;34.72;;;9.57;;
36725;SDS011;44936;52.086;5.150;2023-02-23T00:30:10;32.47;;;9.73;;
36725;SDS011;44936;52.086;5.150;2023-02-23T00:32:37;32.05;;;9.57;;
36725;SDS011;44936;52.086;5.150;2023-02-23T00:35:03;34.63;;;9.43;;
36725;SDS011;44936;52.086;5.150;2023-02-23T00:37:32;36.05;;;9.50;;
36725;SDS011;44936;52.086;5.150;2023-02-23T00:39:57;30.50;;;9.23;;
36725;SDS011;44936;52.086;5.150;2023-02-23T00:42:23;34.78;;;9.07;;
36725;SDS011;44936;52.086;5.150;2023-02-23T00:44:49;36.08;;;9.20;;
36725;SDS011;44936;52.086;5.150;2023-02-23T00:47:14;34.35;;;9.35;;
36725;SDS011;44936;52.086;5.150;2023-02-23T00:49:40;30.88;;;8.23;;
36725;SDS011;44936;52.086;5.150;2023-02-23T00:52:08;36.00;;;10.40;;
36725;SDS011;44936;52.086;5.150;2023-02-23T00:54:34;33.92;;;8.07;;
36725;SDS011;44936;52.086;5.150;2023-02-23T00:56:59;35.15;;;8.60;;
36725;SDS011;44936;52.086;5.150;2023-02-23T00:59:25;32.28;;;9.45;;
36725;SDS011;44936;52.086;5.150;2023-02-23T01:01:51;25.02;;;7.70;;
36725;SDS011;44936;52.086;5.150;2023-02-23T01:04:16;23.67;;;7.00;;
36725;SDS011;44936;52.086;5.150;2023-02-23T01:06:41;28.60;;;8.10;;
36725;SDS011;44936;52.086;5.150;2023-02-23T01:09:08;33.38;;;9.40;;
36725;SDS011;44936;52.086;5.150;2023-02-23T01:11:37;28.90;;;7.57;;
36725;SDS011;44936;52.086;5.150;2023-02-23T01:14:03;27.45;;;7.53;;
36725;SDS011;44936;52.086;5.150;2023-02-23T01:16:30;28.15;;;8.65;;
36725;SDS011;44936;52.086;5.150;2023-02-23T01:18:57;29.33;;;8.30;;
36725;SDS011;44936;52.086;5.150;2023-02-23T01:21:26;30.02;;;8.13;;
36725;SDS011;44936;52.086;5.150;2023-02-23T01:23:54;30.27;;;9.10;;
36725;SDS011;44936;52.086;5.150;2023-02-23T01:26:21;34.38;;;9.18;;
36725;SDS011;44936;52.086;5.150;2023-02-23T01:28:48;23.60;;;7.75;;
36725;SDS011;44936;52.086;5.150;2023-02-23T01:31:18;35.83;;;9.50;;
36725;SDS011;44936;52.086;5.150;2023-02-23T01:33:44;30.52;;;8.00;;
36725;SDS011;44936;52.086;5.150;2023-02-23T01:36:10;29.75;;;7.82;;
36725;SDS011;44936;52.086;5.150;2023-02-23T01:38:37;31.05;;;7.35;;
36725;SDS011;44936;52.086;5.150;2023-02-23T01:41:03;31.98;;;8.68;;
36725;SDS011;44936;52.086;5.150;2023-02-23T01:43:28;32.08;;;8.70;;
36725;SDS011;44936;52.086;5.150;2023-02-23T01:45:56;26.98;;;8.18;;
36725;SDS011;44936;52.086;5.150;2023-02-23T01:48:26;24.40;;;7.25;;
36725;SDS011;44936;52.086;5.150;2023-02-23T01:51:03;26.58;;;7.18;;
36725;SDS011;44936;52.086;5.150;2023-02-23T01:53:33;30.35;;;7.88;;
36725;SDS011;44936;52.086;5.150;2023-02-23T01:56:13;29.42;;;8.40;;
36725;SDS011;44936;52.086;5.150;2023-02-23T01:58:44;30.35;;;8.93;;
36725;SDS011;44936;52.086;5.150;2023-02-23T02:01:11;31.52;;;8.45;;
36725;SDS011;44936;52.086;5.150;2023-02-23T02:03:42;24.25;;;7.53;;
36725;SDS011;44936;52.086;5.150;2023-02-23T02:06:12;28.00;;;8.02;;
36725;SDS011;44936;52.086;5.150;2023-02-23T02:08:42;26.05;;;8.20;;
36725;SDS011;44936;52.086;5.150;2023-02-23T02:11:13;33.60;;;8.43;;
36725;SDS011;44936;52.086;5.150;2023-02-23T02:14:01;30.40;;;8.10;;
36725;SDS011;44936;52.086;5.150;2023-02-23T02:16:40;27.02;;;7.95;;
36725;SDS011;44936;52.086;5.150;2023-02-23T02:19:19;30.77;;;8.60;;
36725;SDS011;44936;52.086;5.150;2023-02-23T02:22:14;29.52;;;7.97;;
36725;SDS011;44936;52.086;5.150;2023-02-23T02:24:51;34.15;;;9.77;;
36725;SDS011;44936;52.086;5.150;2023-02-23T02:41:51;28.45;;;8.63;;
36725;SDS011;44936;52.086;5.150;2023-02-23T02:47:06;31.35;;;8.35;;
36725;SDS011;44936;52.086;5.150;2023-02-23T02:49:40;25.10;;;7.93;;
36725;SDS011;44936;52.086;5.150;2023-02-23T02:52:15;30.75;;;8.15;;
36725;SDS011;44936;52.086;5.150;2023-02-23T02:54:54;32.33;;;8.95;;
36725;SDS011;44936;52.086;5.150;2023-02-23T02:57:25;28.67;;;7.47;;
36725;SDS011;44936;52.086;5.150;2023-02-23T02:59:52;29.25;;;8.00;;
36725;SDS011;44936;52.086;5.150;2023-02-23T03:02:37;28.90;;;7.72;;
36725;SDS011;44936;52.086;5.150;2023-02-23T03:05:23;31.20;;;8.68;;
36725;SDS011;44936;52.086;5.150;2023-02-23T03:11:13;35.25;;;8.25;;
36725;SDS011;44936;52.086;5.150;2023-02-23T03:20:08;28.23;;;7.65;;
36725;SDS011;44936;52.086;5.150;2023-02-23T03:23:08;26.42;;;7.40;;
36725;SDS011;44936;52.086;5.150;2023-02-23T03:25:56;32.70;;;8.15;;
36725;SDS011;44936;52.086;5.150;2023-02-23T03:28:54;26.95;;;6.57;;
36725;SDS011;44936;52.086;5.150;2023-02-23T03:34:53;30.63;;;8.57;;
36725;SDS011;44936;52.086;5.150;2023-02-23T03:37:44;29.13;;;7.88;;
36725;SDS011;44936;52.086;5.150;2023-02-23T03:40:36;30.98;;;8.60;;
36725;SDS011;44936;52.086;5.150;2023-02-23T03:43:25;27.65;;;7.82;;
36725;SDS011;44936;52.086;5.150;2023-02-23T03:46:15;29.00;;;7.65;;
36725;SDS011;44936;52.086;5.150;2023-02-23T03:49:02;33.70;;;8.95;;
36725;SDS011;44936;52.086;5.150;2023-02-23T03:51:51;31.27;;;7.80;;
36725;SDS011;44936;52.086;5.150;2023-02-23T03:54:44;29.95;;;7.82;;
36725;SDS011;44936;52.086;5.150;2023-02-23T03:57:36;31.73;;;7.88;;
36725;SDS011;44936;52.086;5.150;2023-02-23T04:00:24;30.73;;;7.60;;
36725;SDS011;44936;52.086;5.150;2023-02-23T04:03:13;30.80;;;7.78;;
36725;SDS011;44936;52.086;5.150;2023-02-23T04:06:00;31.30;;;8.75;;
36725;SDS011;44936;52.086;5.150;2023-02-23T04:08:47;32.47;;;7.65;;
36725;SDS011;44936;52.086;5.150;2023-02-23T04:11:41;28.88;;;6.88;;
36725;SDS011;44936;52.086;5.150;2023-02-23T04:14:38;27.35;;;6.72;;
36725;SDS011;44936;52.086;5.150;2023-02-23T04:17:10;34.90;;;9.70;;
36725;SDS011;44936;52.086;5.150;2023-02-23T04:19:47;38.40;;;8.63;;
36725;SDS011;44936;52.086;5.150;2023-02-23T04:22:13;35.10;;;8.77;;
36725;SDS011;44936;52.086;5.150;2023-02-23T04:24:39;32.58;;;7.82;;
36725;SDS011;44936;52.086;5.150;2023-02-23T04:27:04;30.65;;;8.20;;
36725;SDS011;44936;52.086;5.150;2023-02-23T04:29:30;26.30;;;7.25;;
36725;SDS011;44936;52.086;5.150;2023-02-23T04:31:55;28.20;;;8.30;;
36725;SDS011;44936;52.086;5.150;2023-02-23T04:34:21;29.15;;;7.90;;
36725;SDS011;44936;52.086;5.150;2023-02-23T04:36:46;33.88;;;8.30;;
36725;SDS011;44936;52.086;5.150;2023-02-23T04:39:11;24.40;;;6.63;;
36725;SDS011;44936;52.086;5.150;2023-02-23T04:41:37;32.10;;;8.10;;
36725;SDS011;44936;52.086;5.150;2023-02-23T04:44:02;33.15;;;8.13;;
36725;SDS011;44936;52.086;5.150;2023-02-23T04:46:29;27.95;;;8.23;;
36725;SDS011;44936;52.086;5.150;2023-02-23T04:48:54;35.53;;;8.35;;
36725;SDS011;44936;52.086;5.150;2023-02-23T04:51:19;31.42;;;7.82;;
36725;SDS011;44936;52.086;5.150;2023-02-23T04:53:45;27.38;;;7.22;;
36725;SDS011;44936;52.086;5.150;2023-02-23T04:56:10;30.73;;;7.43;;
36725;SDS011;44936;52.086;5.150;2023-02-23T04:58:36;37.17;;;8.27;;
36725;SDS011;44936;52.086;5.150;2023-02-23T05:01:07;33.97;;;7.95;;
36725;SDS011;44936;52.086;5.150;2023-02-23T05:03:33;29.50;;;7.37;;
36725;SDS011;44936;52.086;5.150;2023-02-23T05:06:00;28.58;;;7.30;;
36725;SDS011;44936;52.086;5.150;2023-02-23T05:08:25;31.42;;;7.75;;
36725;SDS011;44936;52.086;5.150;2023-02-23T05:10:50;25.63;;;7.18;;
36725;SDS011;44936;52.086;5.150;2023-02-23T05:13:16;31.48;;;7.90;;
36725;SDS011;44936;52.086;5.150;2023-02-23T05:15:41;38.35;;;9.85;;
36725;SDS011;44936;52.086;5.150;2023-02-23T05:18:07;29.98;;;8.18;;
36725;SDS011;44936;52.086;5.150;2023-02-23T05:20:34;29.30;;;7.40;;
36725;SDS011;44936;52.086;5.150;2023-02-23T05:22:59;27.08;;;6.63;;
36725;SDS011;44936;52.086;5.150;2023-02-23T05:25:25;30.00;;;7.43;;
36725;SDS011;44936;52.086;5.150;2023-02-23T05:27:50;31.20;;;7.07;;
36725;SDS011;44936;52.086;5.150;2023-02-23T05:30:16;28.33;;;7.30;;
36725;SDS011;44936;52.086;5.150;2023-02-23T05:32:41;25.35;;;7.57;;
36725;SDS011;44936;52.086;5.150;2023-02-23T05:35:07;29.13;;;7.50;;
36725;SDS011;44936;52.086;5.150;2023-02-23T05:37:33;29.40;;;7.35;;
36725;SDS011;44936;52.086;5.150;2023-02-23T05:39:58;23.85;;;6.57;;
36725;SDS011;44936;52.086;5.150;2023-02-23T05:42:24;26.15;;;6.88;;
36725;SDS011;44936;52.086;5.150;2023-02-23T05:44:49;34.05;;;8.07;;
36725;SDS011;44936;52.086;5.150;2023-02-23T05:47:15;26.75;;;6.13;;
36725;SDS011;44936;52.086;5.150;2023-02-23T05:49:40;27.63;;;7.38;;
36725;SDS011;44936;52.086;5.150;2023-02-23T05:52:05;25.10;;;6.88;;
36725;SDS011;44936;52.086;5.150;2023-02-23T05:54:31;25.30;;;7.32;;
36725;SDS011;44936;52.086;5.150;2023-02-23T05:56:56;27.17;;;6.45;;
36725;SDS011;44936;52.086;5.150;2023-02-23T05:59:22;27.95;;;7.00;;
36725;SDS011;44936;52.086;5.150;2023-02-23T06:01:47;28.98;;;7.38;;
36725;SDS011;44936;52.086;5.150;2023-02-23T06:04:12;22.30;;;6.38;;
36725;SDS011;44936;52.086;5.150;2023-02-23T06:06:38;32.47;;;8.05;;
36725;SDS011;44936;52.086;5.150;2023-02-23T06:09:04;30.63;;;6.97;;
36725;SDS011;44936;52.086;5.150;2023-02-23T06:11:29;26.75;;;7.30;;
36725;SDS011;44936;52.086;5.150;2023-02-23T06:13:56;24.80;;;6.65;;
36725;SDS011;44936;52.086;5.150;2023-02-23T06:16:23;25.38;;;6.45;;
36725;SDS011;44936;52.086;5.150;2023-02-23T06:18:49;28.83;;;7.65;;
36725;SDS011;44936;52.086;5.150;2023-02-23T06:21:14;25.70;;;7.22;;
36725;SDS011;44936;52.086;5.150;2023-02-23T06:23:40;26.50;;;6.68;;
36725;SDS011;44936;52.086;5.150;2023-02-23T06:26:05;23.90;;;7.05;;
36725;SDS011;44936;52.086;5.150;2023-02-23T06:28:32;27.70;;;7.25;;
36725;SDS011;44936;52.086;5.150;2023-02-23T06:30:58;24.88;;;6.18;;
36725;SDS011;44936;52.086;5.150;2023-02-23T06:33:23;34.78;;;7.20;;
36725;SDS011;44936;52.086;5.150;2023-02-23T06:35:49;31.13;;;6.85;;
36725;SDS011;44936;52.086;5.150;2023-02-23T06:38:15;24.40;;;7.30;;
36725;SDS011;44936;52.086;5.150;2023-02-23T06:40:41;23.77;;;6.40;;
36725;SDS011;44936;52.086;5.150;2023-02-23T06:43:07;25.38;;;6.07;;
36725;SDS011;44936;52.086;5.150;2023-02-23T06:45:32;25.73;;;6.68;;
36725;SDS011;44936;52.086;5.150;2023-02-23T06:47:58;23.50;;;6.82;;
36725;SDS011;44936;52.086;5.150;2023-02-23T06:50:24;25.65;;;6.32;;
36725;SDS011;44936;52.086;5.150;2023-02-23T06:52:50;28.42;;;7.55;;
36725;SDS011;44936;52.086;5.150;2023-02-23T06:55:15;28.45;;;6.75;;
36725;SDS011;44936;52.086;5.150;2023-02-23T06:57:41;28.20;;;7.10;;
36725;SDS011;44936;52.086;5.150;2023-02-23T07:00:08;30.55;;;7.70;;
36725;SDS011;44936;52.086;5.150;2023-02-23T07:02:34;27.42;;;6.80;;
36725;SDS011;44936;52.086;5.150;2023-02-23T07:05:01;31.75;;;8.35;;
36725;SDS011;44936;52.086;5.150;2023-02-23T07:07:27;35.13;;;8.68;;
36725;SDS011;44936;52.086;5.150;2023-02-23T07:09:53;28.23;;;7.20;;
36725;SDS011;44936;52.086;5.150;2023-02-23T07:12:18;31.33;;;8.13;;
36725;SDS011;44936;52.086;5.150;2023-02-23T07:14:45;28.00;;;7.10;;
36725;SDS011;44936;52.086;5.150;2023-02-23T07:17:11;27.75;;;6.90;;
36725;SDS011;44936;52.086;5.150;2023-02-23T07:19:36;29.63;;;6.97;;
36725;SDS011;44936;52.086;5.150;2023-02-23T07:22:01;27.85;;;7.00;;
36725;SDS011;44936;52.086;5.150;2023-02-23T07:24:27;32.95;;;7.82;;
36725;SDS011;44936;52.086;5.150;2023-02-23T07:26:52;32.85;;;8.27;;
36725;SDS011;44936;52.086;5.150;2023-02-23T07:29:18;29.38;;;7.15;;
36725;SDS011;44936;52.086;5.150;2023-02-23T07:31:44;26.48;;;7.75;;
36725;SDS011;44936;52.086;5.150;2023-02-23T07:34:09;30.40;;;6.63;;
36725;SDS011;44936;52.086;5.150;2023-02-23T07:36:35;31.85;;;7.32;;
36725;SDS011;44936;52.086;5.150;2023-02-23T07:39:02;28.27;;;6.20;;
36725;SDS011;44936;52.086;5.150;2023-02-23T07:41:28;28.10;;;6.85;;
36725;SDS011;44936;52.086;5.150;2023-02-23T07:43:54;29.17;;;6.82;;
36725;SDS011;44936;52.086;5.150;2023-02-23T07:46:19;37.03;;;7.15;;
36725;SDS011;44936;52.086;5.150;2023-02-23T07:48:45;30.98;;;7.72;;
36725;SDS011;44936;52.086;5.150;2023-02-23T07:51:11;24.77;;;6.65;;
36725;SDS011;44936;52.086;5.150;2023-02-23T07:53:39;33.35;;;6.72;;
36725;SDS011;44936;52.086;5.150;2023-02-23T07:56:05;28.70;;;6.95;;
36725;SDS011;44936;52.086;5.150;2023-02-23T07:58:45;31.10;;;8.80;;
36725;SDS011;44936;52.086;5.150;2023-02-23T08:01:11;34.20;;;7.28;;
36725;SDS011;44936;52.086;5.150;2023-02-23T08:03:37;26.40;;;5.53;;
36725;SDS011;44936;52.086;5.150;2023-02-23T08:06:03;36.92;;;6.80;;
36725;SDS011;44936;52.086;5.150;2023-02-23T08:08:28;33.05;;;7.22;;
36725;SDS011;44936;52.086;5.150;2023-02-23T08:11:00;30.73;;;7.00;;
36725;SDS011;44936;52.086;5.150;2023-02-23T08:15:53;27.88;;;5.57;;
36725;SDS011;44936;52.086;5.150;2023-02-23T08:18:19;34.88;;;6.95;;
36725;SDS011;44936;52.086;5.150;2023-02-23T08:20:44;28.23;;;6.70;;
36725;SDS011;44936;52.086;5.150;2023-02-23T08:23:09;23.15;;;6.20;;
36725;SDS011;44936;52.086;5.150;2023-02-23T08:25:35;32.45;;;6.60;;
36725;SDS011;44936;52.086;5.150;2023-02-23T08:28:01;32.63;;;7.28;;
36725;SDS011;44936;52.086;5.150;2023-02-23T08:30:28;26.50;;;6.18;;
36725;SDS011;44936;52.086;5.150;2023-02-23T08:32:54;27.85;;;6.95;;
36725;SDS011;44936;52.086;5.150;2023-02-23T08:35:20;27.05;;;6.53;;
36725;SDS011;44936;52.086;5.150;2023-02-23T08:37:45;27.20;;;6.65;;
36725;SDS011;44936;52.086;5.150;2023-02-23T08:40:11;24.58;;;5.95;;
36725;SDS011;44936;52.086;5.150;2023-02-23T08:42:42;25.63;;;6.55;;
36725;SDS011;44936;52.086;5.150;2023-02-23T08:45:08;25.38;;;5.82;;
36725;SDS011;44936;52.086;5.150;2023-02-23T08:47:35;26.63;;;6.38;;
36725;SDS011;44936;52.086;5.150;2023-02-23T08:50:01;31.90;;;7.28;;
36725;SDS011;44936;52.086;5.150;2023-02-23T08:52:26;24.20;;;6.28;;
36725;SDS011;44936;52.086;5.150;2023-02-23T08:54:52;29.02;;;6.53;;
36725;SDS011;44936;52.086;5.150;2023-02-23T08:57:38;24.92;;;5.97;;
36725;SDS011;44936;52.086;5.150;2023-02-23T09:00:04;23.70;;;6.30;;
36725;SDS011;44936;52.086;5.150;2023-02-23T09:02:38;28.58;;;5.97;;
36725;SDS011;44936;52.086;5.150;2023-02-23T09:05:04;26.80;;;6.72;;
36725;SDS011;44936;52.086;5.150;2023-02-23T09:07:30;29.80;;;8.07;;
36725;SDS011;44936;52.086;5.150;2023-02-23T09:09:56;27.80;;;6.10;;
36725;SDS011;44936;52.086;5.150;2023-02-23T09:12:22;26.67;;;5.47;;
36725;SDS011;44936;52.086;5.150;2023-02-23T09:14:47;21.75;;;5.50;;
36725;SDS011;44936;52.086;5.150;2023-02-23T09:17:13;30.45;;;6.05;;
36725;SDS011;44936;52.086;5.150;2023-02-23T09:19:38;23.90;;;5.35;;
36725;SDS011;44936;52.086;5.150;2023-02-23T09:22:04;29.23;;;6.15;;
36725;SDS011;44936;52.086;5.150;2023-02-23T09:24:29;26.38;;;6.00;;
36725;SDS011;44936;52.086;5.150;2023-02-23T09:26:54;23.88;;;5.80;;
36725;SDS011;44936;52.086;5.150;2023-02-23T09:29:20;23.45;;;5.93;;
36725;SDS011;44936;52.086;5.150;2023-02-23T09:31:47;26.30;;;6.35;;
36725;SDS011;44936;52.086;5.150;2023-02-23T09:34:12;24.88;;;5.38;;
36725;SDS011;44936;52.086;5.150;2023-02-23T09:36:37;24.45;;;5.60;;
36725;SDS011;44936;52.086;5.150;2023-02-23T09:39:03;20.67;;;4.85;;
36725;SDS011;44936;52.086;5.150;2023-02-23T09:41:34;21.30;;;6.13;;
36725;SDS011;44936;52.086;5.150;2023-02-23T09:49:33;25.80;;;6.28;;
36725;SDS011;44936;52.086;5.150;2023-02-23T09:52:03;22.98;;;5.28;;
36725;SDS011;44936;52.086;5.150;2023-02-23T09:54:33;20.17;;;4.65;;
36725;SDS011;44936;52.086;5.150;2023-02-23T09:57:04;22.58;;;5.00;;
36725;SDS011;44936;52.086;5.150;2023-02-23T09:59:38;15.70;;;4.05;;
36725;SDS011;44936;52.086;5.150;2023-02-23T10:04:40;21.33;;;5.05;;
36725;SDS011;44936;52.086;5.150;2023-02-23T10:07:12;20.05;;;4.80;;
36725;SDS011;44936;52.086;5.150;2023-02-23T10:10:02;21.58;;;4.90;;
36725;SDS011;44936;52.086;5.150;2023-02-23T10:21:04;14.15;;;4.32;;
36725;SDS011;44936;52.086;5.150;2023-02-23T10:23:42;17.88;;;4.72;;
36725;SDS011;44936;52.086;5.150;2023-02-23T10:26:15;20.95;;;4.85;;
36725;SDS011;44936;52.086;5.150;2023-02-23T10:28:44;17.70;;;5.20;;
36725;SDS011;44936;52.086;5.150;2023-02-23T10:31:53;17.65;;;4.18;;
36725;SDS011;44936;52.086;5.150;2023-02-23T10:34:08;17.92;;;4.20;;
36725;SDS011;44936;52.086;5.150;2023-02-23T10:36:46;17.60;;;4.93;;
36725;SDS011;44936;52.086;5.150;2023-02-23T10:39:16;18.85;;;4.25;;
36725;SDS011;44936;52.086;5.150;2023-02-23T10:41:42;17.05;;;4.45;;
36725;SDS011;44936;52.086;5.150;2023-02-23T10:44:11;17.52;;;4.43;;
36725;SDS011;44936;52.086;5.150;2023-02-23T10:46:55;15.05;;;3.83;;
36725;SDS011;44936;52.086;5.150;2023-02-23T10:49:27;18.33;;;3.92;;
36725;SDS011;44936;52.086;5.150;2023-02-23T10:51:59;12.20;;;3.88;;
36725;SDS011;44936;52.086;5.150;2023-02-23T10:57:01;11.43;;;3.50;;
36725;SDS011;44936;52.086;5.150;2023-02-23T10:59:31;12.38;;;4.05;;
36725;SDS011;44936;52.086;5.150;2023-02-23T11:01:57;14.15;;;4.50;;
36725;SDS011;44936;52.086;5.150;2023-02-23T11:06:50;11.65;;;3.30;;
36725;SDS011;44936;52.086;5.150;2023-02-23T11:09:30;11.45;;;3.03;;
36725;SDS011;44936;52.086;5.150;2023-02-23T11:12:01;9.98;;;3.10;;
36725;SDS011;44936;52.086;5.150;2023-02-23T11:14:40;12.25;;;3.60;;
36725;SDS011;44936;52.086;5.150;2023-02-23T11:17:09;7.00;;;2.60;;
36725;SDS011;44936;52.086;5.150;2023-02-23T11:20:12;11.73;;;3.70;;
36725;SDS011;44936;52.086;5.150;2023-02-23T11:22:42;12.23;;;2.97;;
36725;SDS011;44936;52.086;5.150;2023-02-23T11:25:15;10.68;;;3.97;;
36725;SDS011;44936;52.086;5.150;2023-02-23T11:27:48;11.25;;;2.60;;
36725;SDS011;44936;52.086;5.150;2023-02-23T11:30:15;8.20;;;2.70;;
36725;SDS011;44936;52.086;5.150;2023-02-23T11:32:49;6.22;;;2.30;;
36725;SDS011;44936;52.086;5.150;2023-02-23T11:35:26;9.85;;;3.45;;
36725;SDS011;44936;52.086;5.150;2023-02-23T11:37:54;12.60;;;2.88;;
36725;SDS011;44936;52.086;5.150;2023-02-23T11:45:46;13.15;;;3.22;;
36725;SDS011;44936;52.086;5.150;2023-02-23T11:49:03;11.65;;;3.20;;
36725;SDS011;44936;52.086;5.150;2023-02-23T11:51:06;18.95;;;4.72;;
36725;SDS011;44936;52.086;5.150;2023-02-23T11:53:36;13.73;;;3.53;;
36725;SDS011;44936;52.086;5.150;2023-02-23T11:56:04;13.88;;;3.65;;
36725;SDS011;44936;52.086;5.150;2023-02-23T11:58:46;11.10;;;3.80;;
36725;SDS011;44936;52.086;5.150;2023-02-23T12:01:14;14.90;;;3.60;;
36725;SDS011;44936;52.086;5.150;2023-02-23T12:03:52;13.38;;;3.35;;
36725;SDS011;44936;52.086;5.150;2023-02-23T12:06:40;15.18;;;3.65;;
36725;SDS011;44936;52.086;5.150;2023-02-23T12:09:22;14.35;;;3.47;;
36725;SDS011;44936;52.086;5.150;2023-02-23T12:12:04;12.23;;;3.70;;
36725;SDS011;44936;52.086;5.150;2023-02-23T12:17:37;14.20;;;4.00;;
36725;SDS011;44936;52.086;5.150;2023-02-23T12:22:46;14.98;;;3.97;;
36725;SDS011;44936;52.086;5.150;2023-02-23T12:25:30;13.93;;;4.47;;
36725;SDS011;44936;52.086;5.150;2023-02-23T12:28:09;11.23;;;3.15;;
36725;SDS011;44936;52.086;5.150;2023-02-23T12:30:45;13.73;;;3.90;;
36725;SDS011;44936;52.086;5.150;2023-02-23T12:39:48;12.52;;;3.20;;
36725;SDS011;44936;52.086;5.150;2023-02-23T12:42:12;11.57;;;3.97;;
36725;SDS011;44936;52.086;5.150;2023-02-23T12:50:34;11.93;;;2.80;;
36725;SDS011;44936;52.086;5.150;2023-02-23T12:53:12;8.88;;;2.50;;
36725;SDS011;44936;52.086;5.150;2023-02-23T13:00:57;8.33;;;2.73;;
36725;SDS011;44936;52.086;5.150;2023-02-23T13:05:52;7.60;;;2.53;;
36725;SDS011;44936;52.086;5.150;2023-02-23T13:11:38;11.32;;;3.22;;
36725;SDS011;44936;52.086;5.150;2023-02-23T13:14:18;7.90;;;2.42;;
36725;SDS011;44936;52.086;5.150;2023-02-23T13:16:51;10.93;;;2.58;;
36725;SDS011;44936;52.086;5.150;2023-02-23T13:22:33;9.75;;;2.22;;
36725;SDS011;44936;52.086;5.150;2023-02-23T13:25:27;11.20;;;2.53;;
36725;SDS011;44936;52.086;5.150;2023-02-23T13:28:02;10.10;;;2.53;;
36725;SDS011;44936;52.086;5.150;2023-02-23T13:30:29;10.95;;;2.35;;
36725;SDS011;44936;52.086;5.150;2023-02-23T13:33:12;8.38;;;1.90;;
36725;SDS011;44936;52.086;5.150;2023-02-23T13:35:43;12.00;;;2.63;;
36725;SDS011;44936;52.086;5.150;2023-02-23T13:41:03;12.52;;;3.15;;
36725;SDS011;44936;52.086;5.150;2023-02-23T13:43:55;11.07;;;2.45;;
36725;SDS011;44936;52.086;5.150;2023-02-23T13:46:29;10.77;;;2.38;;
36725;SDS011;44936;52.086;5.150;2023-02-23T13:49:39;10.80;;;2.78;;
36725;SDS011;44936;52.086;5.150;2023-02-23T13:54:54;10.32;;;2.50;;
36725;SDS011;44936;52.086;5.150;2023-02-23T13:57:22;9.07;;;2.43;;
36725;SDS011;44936;52.086;5.150;2023-02-23T13:59:48;13.00;;;3.38;;
36725;SDS011;44936;52.086;5.150;2023-02-23T14:04:52;12.20;;;2.33;;
36725;SDS011;44936;52.086;5.150;2023-02-23T14:07:23;11.02;;;2.58;;
36725;SDS011;44936;52.086;5.150;2023-02-23T14:09:54;10.50;;;3.03;;
36725;SDS011;44936;52.086;5.150;2023-02-23T14:12:31;11.85;;;2.55;;
36725;SDS011;44936;52.086;5.150;2023-02-23T14:15:42;8.40;;;2.88;;
36725;SDS011;44936;52.086;5.150;2023-02-23T14:23:04;11.63;;;3.08;;
36725;SDS011;44936;52.086;5.150;2023-02-23T14:25:52;13.02;;;2.88;;
36725;SDS011;44936;52.086;5.150;2023-02-23T14:28:36;9.20;;;2.80;;
36725;SDS011;44936;52.086;5.150;2023-02-23T14:38:57;11.57;;;2.72;;
36725;SDS011;44936;52.086;5.150;2023-02-23T14:41:29;12.27;;;3.45;;
36725;SDS011;44936;52.086;5.150;2023-02-23T14:44:04;10.52;;;2.53;;
36725;SDS011;44936;52.086;5.150;2023-02-23T14:46:55;14.73;;;2.50;;
36725;SDS011;44936;52.086;5.150;2023-02-23T14:49:26;12.77;;;2.85;;
36725;SDS011;44936;52.086;5.150;2023-02-23T14:51:53;8.15;;;2.58;;
36725;SDS011;44936;52.086;5.150;2023-02-23T14:54:30;12.45;;;2.95;;
36725;SDS011;44936;52.086;5.150;2023-02-23T14:56:57;14.65;;;3.00;;
36725;SDS011;44936;52.086;5.150;2023-02-23T14:59:34;10.73;;;3.28;;
36725;SDS011;44936;52.086;5.150;2023-02-23T15:02:06;13.15;;;3.42;;
36725;SDS011;44936;52.086;5.150;2023-02-23T15:04:34;12.68;;;3.92;;
36725;SDS011;44936;52.086;5.150;2023-02-23T15:07:03;15.90;;;3.20;;
36725;SDS011;44936;52.086;5.150;2023-02-23T15:09:37;15.80;;;4.00;;
36725;SDS011;44936;52.086;5.150;2023-02-23T15:12:17;13.13;;;3.15;;
36725;SDS011;44936;52.086;5.150;2023-02-23T15:14:45;17.75;;;3.90;;
36725;SDS011;44936;52.086;5.150;2023-02-23T15:17:15;15.75;;;3.65;;
36725;SDS011;44936;52.086;5.150;2023-02-23T15:19:44;13.18;;;3.67;;
36725;SDS011;44936;52.086;5.150;2023-02-23T15:22:19;14.00;;;3.25;;
36725;SDS011;44936;52.086;5.150;2023-02-23T15:24:49;11.55;;;2.45;;
36725;SDS011;44936;52.086;5.150;2023-02-23T15:27:15;12.95;;;2.83;;
36725;SDS011;44936;52.086;5.150;2023-02-23T15:29:42;5.25;;;1.85;;
36725;SDS011;44936;52.086;5.150;2023-02-23T15:32:12;7.85;;;1.85;;
36725;SDS011;44936;52.086;5.150;2023-02-23T15:34:49;13.80;;;2.15;;
36725;SDS011;44936;52.086;5.150;2023-02-23T15:37:21;8.98;;;1.40;;
36725;SDS011;44936;52.086;5.150;2023-02-23T15:40:12;8.23;;;1.30;;
36725;SDS011;44936;52.086;5.150;2023-02-23T15:42:42;7.90;;;1.30;;
36725;SDS011;44936;52.086;5.150;2023-02-23T15:45:53;8.13;;;1.17;;
36725;SDS011;44936;52.086;5.150;2023-02-23T15:48:14;10.50;;;1.63;;
36725;SDS011;44936;52.086;5.150;2023-02-23T15:50:43;12.70;;;1.48;;
36725;SDS011;44936;52.086;5.150;2023-02-23T15:55:56;3.65;;;1.10;;
36725;SDS011;44936;52.086;5.150;2023-02-23T15:58:29;4.90;;;0.90;;
36725;SDS011;44936;52.086;5.150;2023-02-23T16:01:01;6.53;;;1.55;;
36725;SDS011;44936;52.086;5.150;2023-02-23T16:03:43;7.38;;;1.05;;
36725;SDS011;44936;52.086;5.150;2023-02-23T16:06:29;6.57;;;1.17;;
36725;SDS011;44936;52.086;5.150;2023-02-23T16:09:00;3.78;;;0.80;;
36725;SDS011;44936;52.086;5.150;2023-02-23T16:11:45;6.75;;;1.23;;
36725;SDS011;44936;52.086;5.150;2023-02-23T16:14:14;6.70;;;0.88;;
36725;SDS011;44936;52.086;5.150;2023-02-23T16:16:41;11.63;;;0.98;;
36725;SDS011;44936;52.086;5.150;2023-02-23T16:19:10;12.45;;;1.08;;
36725;SDS011;44936;52.086;5.150;2023-02-23T16:21:38;4.20;;;0.75;;
36725;SDS011;44936;52.086;5.150;2023-02-23T16:24:11;3.22;;;0.50;;
36725;SDS011;44936;52.086;5.150;2023-02-23T16:29:21;4.35;;;0.80;;
36725;SDS011;44936;52.086;5.150;2023-02-23T16:32:15;6.03;;;0.75;;
36725;SDS011;44936;52.086;5.150;2023-02-23T16:34:49;9.48;;;0.80;;
36725;SDS011;44936;52.086;5.150;2023-02-23T16:37:21;3.63;;;0.68;;
36725;SDS011;44936;52.086;5.150;2023-02-23T16:39:49;5.18;;;0.75;;
36725;SDS011;44936;52.086;5.150;2023-02-23T16:42:26;6.75;;;0.88;;
36725;SDS011;44936;52.086;5.150;2023-02-23T16:44:51;8.20;;;0.63;;
36725;SDS011;44936;52.086;5.150;2023-02-23T16:49:49;11.35;;;0.95;;
36725;SDS011;44936;52.086;5.150;2023-02-23T16:52:16;10.32;;;1.25;;
36725;SDS011;44936;52.086;5.150;2023-02-23T16:54:43;7.88;;;0.85;;
36725;SDS011;44936;52.086;5.150;2023-02-23T16:57:17;6.75;;;1.55;;
36725;SDS011;44936;52.086;5.150;2023-02-23T16:59:46;10.50;;;1.08;;